Time;durP1;ratioP1;P1;durP2;ratioP2;P2;SDS_P1;SDS_P2;PMS_P1;PMS_P2;Temp;Humidity;BMP_temperature;BMP_pressure;BME280_temperature;BME280_humidity;BME280_pressure;Samples;Min_cycle;Max_cycle;Signal;HPM_P1;HPM_P2
2023/08/05 00:01:06;;;;;;;16.52;7.95;;;14.20;99.90;;;;;;6233427;23;20709;-78
2023/08/05 00:03:32;;;;;;;16.80;9.18;;;14.20;99.90;;;;;;6233512;23;20028;-77
2023/08/05 00:05:58;;;;;;;16.35;7.32;;;14.30;99.90;;;;;;6232858;23;20087;-78
2023/08/05 00:08:24;;;;;;;8.20;4.97;;;14.30;99.90;;;;;;6233332;23;20452;-77
2023/08/05 00:10:50;;;;;;;10.82;4.82;;;14.30;99.90;;;;;;6233287;23;20094;-78
2023/08/05 00:13:16;;;;;;;16.85;7.55;;;14.20;99.90;;;;;;6231697;23;19996;-79
2023/08/05 00:15:42;;;;;;;21.65;9.30;;;14.20;99.90;;;;;;6232529;23;20593;-78
2023/08/05 00:18:08;;;;;;;20.25;9.30;;;14.20;99.90;;;;;;6231798;23;20000;-78
2023/08/05 00:20:33;;;;;;;20.15;9.95;;;14.20;99.90;;;;;;6232408;23;20007;-79
2023/08/05 00:22:59;;;;;;;12.07;5.95;;;14.20;99.90;;;;;;6232263;23;20050;-78
2023/08/05 00:25:25;;;;;;;18.30;9.07;;;14.20;99.90;;;;;;6233415;23;20044;-78
2023/08/05 00:27:50;;;;;;;19.42;9.10;;;14.20;99.90;;;;;;6234066;23;20000;-78
2023/08/05 00:30:16;;;;;;;15.80;7.50;;;14.20;99.90;;;;;;6233683;23;20011;-78
2023/08/05 00:32:41;;;;;;;11.45;5.65;;;14.20;99.90;;;;;;6234613;23;20012;-78
2023/08/05 00:35:07;;;;;;;8.68;4.85;;;14.20;99.90;;;;;;6236338;23;20019;-78
2023/08/05 00:37:34;;;;;;;7.15;3.47;;;14.20;99.90;;;;;;6233366;23;20000;-78
2023/08/05 00:40:00;;;;;;;5.50;3.30;;;14.20;99.90;;;;;;6232437;23;20046;-78
2023/08/05 00:42:28;;;;;;;5.60;3.20;;;14.20;99.90;;;;;;6235043;23;20007;-78
2023/08/05 00:44:54;;;;;;;7.13;3.50;;;14.20;99.90;;;;;;6233190;23;20493;-78
2023/08/05 00:47:20;;;;;;;5.72;3.25;;;14.30;99.90;;;;;;6233136;23;20012;-78
2023/08/05 00:49:49;;;;;;;7.25;3.65;;;14.20;99.90;;;;;;6206841;23;20004;-78
2023/08/05 00:52:16;;;;;;;7.32;4.10;;;14.20;99.90;;;;;;6234185;23;20032;-78
2023/08/05 00:54:42;;;;;;;10.90;3.70;;;14.30;99.90;;;;;;6233753;23;20037;-78
2023/08/05 00:57:10;;;;;;;7.78;3.97;;;14.20;99.90;;;;;;6233562;23;20012;-78
2023/08/05 00:59:35;;;;;;;9.32;3.83;;;14.20;99.90;;;;;;6232767;23;20048;-78
2023/08/05 01:02:01;;;;;;;9.70;4.05;;;14.20;99.90;;;;;;6233279;23;20056;-79
2023/08/05 01:04:26;;;;;;;6.03;3.30;;;14.20;99.90;;;;;;6233570;23;20016;-78
2023/08/05 01:06:54;;;;;;;6.20;3.40;;;14.10;99.90;;;;;;6230835;23;20008;-78
2023/08/05 01:09:20;;;;;;;10.27;3.35;;;14.10;99.90;;;;;;6229066;23;20983;-79
2023/08/05 01:11:46;;;;;;;6.50;3.13;;;14.10;99.90;;;;;;6229368;23;20000;-78
2023/08/05 01:14:11;;;;;;;7.30;3.33;;;14.10;99.90;;;;;;6232390;23;20016;-78
2023/08/05 01:16:37;;;;;;;5.68;3.28;;;14.10;99.90;;;;;;6232729;23;20008;-78
2023/08/05 01:19:06;;;;;;;5.22;3.28;;;14.10;99.90;;;;;;6232423;23;20006;-78
2023/08/05 01:21:53;;;;;;;6.75;3.40;;;14.10;99.90;;;;;;6231974;23;20008;-78
2023/08/05 01:24:31;;;;;;;6.18;3.30;;;14.10;99.90;;;;;;6232498;23;19996;-79
2023/08/05 01:26:57;;;;;;;7.03;3.63;;;14.10;99.90;;;;;;6231633;23;20119;-77
2023/08/05 01:29:23;;;;;;;6.85;3.65;;;14.10;99.90;;;;;;6232372;23;20005;-77
2023/08/05 01:31:51;;;;;;;7.78;3.55;;;14.00;99.90;;;;;;6234302;23;20004;-78
2023/08/05 01:34:17;;;;;;;8.40;3.70;;;14.00;99.90;;;;;;6235026;23;20007;-78
2023/08/05 01:36:42;;;;;;;7.05;2.92;;;14.00;99.90;;;;;;6235632;23;20086;-78
2023/08/05 01:39:08;;;;;;;7.45;3.30;;;14.00;99.90;;;;;;6235330;23;20027;-78
2023/08/05 01:41:33;;;;;;;7.15;3.00;;;14.00;99.90;;;;;;6235124;23;20421;-78
2023/08/05 01:43:59;;;;;;;8.00;3.38;;;14.00;99.90;;;;;;6235808;23;20000;-78
2023/08/05 01:46:25;;;;;;;9.00;3.70;;;14.00;99.90;;;;;;6234825;23;20061;-78
2023/08/05 01:48:50;;;;;;;7.28;3.22;;;14.00;99.90;;;;;;6228517;22;20027;-72
2023/08/05 01:51:16;;;;;;;7.47;3.35;;;14.00;99.90;;;;;;6196668;23;20114;-72
2023/08/05 01:53:41;;;;;;;5.38;3.20;;;14.00;99.90;;;;;;6224514;23;20008;-73
2023/08/05 01:56:07;;;;;;;8.07;3.50;;;13.90;99.90;;;;;;6225055;23;20962;-72
2023/08/05 01:58:32;;;;;;;6.68;3.90;;;14.00;99.90;;;;;;6195616;23;20087;-72
2023/08/05 02:00:58;;;;;;;19.40;11.90;;;13.90;99.90;;;;;;6223286;23;20069;-72
2023/08/05 02:03:24;;;;;;;16.90;10.27;;;13.90;99.90;;;;;;6225958;23;20008;-73
2023/08/05 02:05:49;;;;;;;11.68;5.63;;;13.90;99.90;;;;;;6227272;23;20000;-72
2023/08/05 02:08:15;;;;;;;10.30;5.68;;;13.90;99.90;;;;;;6200551;23;20008;-72
2023/08/05 02:10:41;;;;;;;7.85;5.10;;;13.80;99.90;;;;;;6227501;23;20078;-73
2023/08/05 02:13:07;;;;;;;9.55;4.80;;;13.80;99.90;;;;;;6226437;23;20008;-73
2023/08/05 02:15:32;;;;;;;8.05;3.97;;;13.80;99.90;;;;;;6226575;23;20373;-72
2023/08/05 02:17:58;;;;;;;10.93;4.40;;;13.80;99.90;;;;;;6225980;23;20011;-73
2023/08/05 02:20:24;;;;;;;9.45;3.88;;;13.80;99.90;;;;;;6197254;23;20008;-72
2023/08/05 02:22:49;;;;;;;7.93;3.95;;;13.80;99.90;;;;;;6199051;23;20039;-72
2023/08/05 02:25:15;;;;;;;8.23;4.03;;;13.90;99.90;;;;;;6227155;23;20139;-72
2023/08/05 02:27:40;;;;;;;10.82;4.55;;;13.90;99.90;;;;;;6225822;23;20031;-72
2023/08/05 02:30:08;;;;;;;6.82;3.95;;;13.90;99.90;;;;;;6227151;23;20317;-72
2023/08/05 02:32:33;;;;;;;9.63;3.95;;;13.90;99.90;;;;;;6228434;23;20087;-72
2023/08/05 02:34:59;;;;;;;8.23;4.30;;;13.90;99.90;;;;;;6226060;23;20423;-73
2023/08/05 02:37:24;;;;;;;6.75;4.57;;;14.00;99.90;;;;;;6227516;23;19996;-72
2023/08/05 02:39:50;;;;;;;13.13;4.75;;;13.90;99.90;;;;;;6226043;23;20066;-72
2023/08/05 02:42:16;;;;;;;10.73;4.45;;;14.00;99.90;;;;;;6229633;23;20031;-72
2023/08/05 02:44:41;;;;;;;8.93;4.85;;;14.00;99.90;;;;;;6231021;23;20004;-73
2023/08/05 02:47:07;;;;;;;12.75;4.68;;;14.00;99.90;;;;;;6229320;23;20614;-73
2023/08/05 02:49:33;;;;;;;9.73;4.65;;;14.00;99.90;;;;;;6226539;23;20020;-72
2023/08/05 02:51:59;;;;;;;10.05;4.70;;;14.00;99.90;;;;;;6228275;23;20007;-72
2023/08/05 02:54:24;;;;;;;10.57;4.90;;;14.00;99.90;;;;;;6227607;23;20004;-72
2023/08/05 02:56:50;;;;;;;9.30;4.70;;;14.00;99.90;;;;;;6226889;23;20431;-72
2023/08/05 02:59:16;;;;;;;7.97;4.60;;;14.00;99.90;;;;;;6230170;23;20423;-72
2023/08/05 03:01:42;;;;;;;9.00;5.10;;;14.00;99.90;;;;;;6225254;23;20436;-72
2023/08/05 03:04:08;;;;;;;8.02;4.43;;;14.00;99.90;;;;;;6229372;22;20020;-78
2023/08/05 03:06:34;;;;;;;11.88;4.45;;;14.00;99.90;;;;;;6199114;23;20014;-78
2023/08/05 03:08:59;;;;;;;6.30;4.35;;;14.10;99.90;;;;;;6203084;23;20024;-78
2023/08/05 03:11:25;;;;;;;8.70;4.72;;;14.10;99.90;;;;;;6232188;23;20400;-78
2023/08/05 03:13:51;;;;;;;9.80;4.32;;;14.10;99.90;;;;;;6204327;23;20023;-78
2023/08/05 03:16:17;;;;;;;9.82;4.57;;;14.10;99.90;;;;;;6230863;23;20440;-77
2023/08/05 03:18:42;;;;;;;9.00;4.63;;;14.10;99.90;;;;;;6231404;23;20443;-78
2023/08/05 03:21:08;;;;;;;7.97;4.45;;;14.20;99.90;;;;;;6201527;23;20709;-77
2023/08/05 03:23:34;;;;;;;8.55;4.63;;;14.10;99.90;;;;;;6202609;23;20284;-78
2023/08/05 03:25:59;;;;;;;10.32;4.88;;;14.10;99.90;;;;;;6203999;23;20008;-77
2023/08/05 03:28:25;;;;;;;10.63;5.50;;;14.10;99.90;;;;;;6203240;23;20506;-78
2023/08/05 03:30:50;;;;;;;6.03;4.03;;;14.10;99.90;;;;;;6203575;23;20012;-78
2023/08/05 03:33:16;;;;;;;7.72;4.28;;;14.10;99.90;;;;;;6203899;23;20394;-78
2023/08/05 03:35:43;;;;;;;9.27;4.88;;;14.10;99.90;;;;;;6204267;23;20035;-78
2023/08/05 03:38:08;;;;;;;8.07;4.68;;;14.10;99.90;;;;;;6203751;23;20098;-79
2023/08/05 03:40:34;;;;;;;10.40;4.85;;;14.10;99.90;;;;;;6204021;23;20105;-79
2023/08/05 03:43:00;;;;;;;7.97;4.20;;;14.10;99.90;;;;;;6203607;23;20004;-80
2023/08/05 03:45:26;;;;;;;7.25;4.70;;;14.00;99.90;;;;;;6230465;23;20018;-80
2023/08/05 03:47:53;;;;;;;10.30;4.93;;;14.10;99.90;;;;;;6203052;23;20083;-80
2023/08/05 03:50:20;;;;;;;11.45;5.18;;;14.10;99.90;;;;;;6202497;23;20090;-80
2023/08/05 03:52:46;;;;;;;9.55;5.35;;;14.10;99.90;;;;;;6203397;23;20348;-79
2023/08/05 03:55:12;;;;;;;11.88;6.28;;;14.10;99.90;;;;;;6204027;23;20258;-80
2023/08/05 03:57:38;;;;;;;11.63;6.20;;;14.00;99.90;;;;;;6203422;23;20015;-80
2023/08/05 04:00:04;;;;;;;12.73;6.53;;;14.10;99.90;;;;;;6201481;23;20008;-80
2023/08/05 04:02:31;;;;;;;12.20;7.38;;;14.10;99.90;;;;;;6202070;23;20008;-79
2023/08/05 04:04:57;;;;;;;16.80;8.20;;;14.10;99.90;;;;;;6202279;23;20031;-79
2023/08/05 04:07:24;;;;;;;14.10;7.70;;;14.10;99.90;;;;;;6230241;23;20008;-80
2023/08/05 04:09:51;;;;;;;15.00;7.72;;;14.10;99.90;;;;;;6202973;23;20018;-80
2023/08/05 04:12:17;;;;;;;13.52;7.72;;;14.20;99.90;;;;;;6202998;23;20008;-80
2023/08/05 04:14:43;;;;;;;12.93;7.50;;;14.20;99.90;;;;;;6203440;23;20117;-79
2023/08/05 04:17:09;;;;;;;14.38;7.72;;;14.30;99.90;;;;;;6203322;23;20026;-79
2023/08/05 04:19:37;;;;;;;14.10;6.97;;;14.30;99.90;;;;;;6203462;23;20448;-79
2023/08/05 04:22:03;;;;;;;13.50;7.63;;;14.40;99.90;;;;;;6230190;23;20402;-80
2023/08/05 04:24:29;;;;;;;9.82;6.82;;;14.40;99.90;;;;;;6204033;23;20032;-79
2023/08/05 04:26:55;;;;;;;12.82;7.72;;;14.50;99.90;;;;;;6203609;23;20015;-79
2023/08/05 04:29:22;;;;;;;10.77;6.55;;;14.50;99.90;;;;;;6230686;23;20004;-80
2023/08/05 04:31:48;;;;;;;11.80;6.85;;;14.50;99.90;;;;;;6203336;23;20703;-80
2023/08/05 04:34:14;;;;;;;13.45;7.60;;;14.60;99.90;;;;;;6203832;23;20085;-79
2023/08/05 04:36:40;;;;;;;15.07;6.60;;;14.50;99.90;;;;;;6203628;23;20012;-79
2023/08/05 04:39:06;;;;;;;14.85;7.50;;;14.50;99.90;;;;;;6231271;23;20863;-79
2023/08/05 04:41:32;;;;;;;17.00;7.80;;;14.50;99.90;;;;;;6231181;23;20313;-80
2023/08/05 04:43:58;;;;;;;16.15;7.70;;;14.50;99.90;;;;;;6203585;23;20015;-79
2023/08/05 04:46:24;;;;;;;14.25;7.75;;;14.50;99.90;;;;;;6229678;23;20019;-80
2023/08/05 04:48:49;;;;;;;13.27;7.45;;;14.60;99.90;;;;;;6203991;23;20031;-79
2023/08/05 04:51:15;;;;;;;12.48;7.18;;;14.60;99.90;;;;;;6203202;23;20008;-80
2023/08/05 04:53:40;;;;;;;13.85;7.80;;;14.60;99.90;;;;;;6203667;23;20012;-78
2023/08/05 04:56:06;;;;;;;13.50;7.60;;;14.60;99.90;;;;;;6203167;23;20802;-79
2023/08/05 04:58:32;;;;;;;13.65;7.78;;;14.60;99.90;;;;;;6230383;23;20081;-79
2023/08/05 05:00:58;;;;;;;16.45;8.50;;;14.60;99.90;;;;;;6201583;23;20450;-79
2023/08/05 05:03:23;;;;;;;12.95;8.50;;;14.70;99.90;;;;;;6202451;23;20023;-79
2023/08/05 05:05:49;;;;;;;11.88;7.13;;;14.60;99.90;;;;;;6201643;23;20027;-79
2023/08/05 05:08:15;;;;;;;15.07;8.20;;;14.60;99.90;;;;;;6205545;23;20095;-79
2023/08/05 05:10:45;;;;;;;15.10;7.47;;;14.60;99.90;;;;;;6205573;23;20460;-79
2023/08/05 05:13:11;;;;;;;15.30;7.35;;;14.60;99.90;;;;;;6232398;23;20078;-80
2023/08/05 05:15:37;;;;;;;16.13;8.32;;;14.50;99.90;;;;;;6232033;23;20051;-79
2023/08/05 05:18:02;;;;;;;22.10;8.68;;;14.50;99.90;;;;;;6206060;23;20082;-79
2023/08/05 05:20:28;;;;;;;14.02;7.22;;;14.60;99.90;;;;;;6205637;23;20008;-79
2023/08/05 05:22:54;;;;;;;12.65;7.78;;;14.60;99.90;;;;;;6233057;23;20028;-79
2023/08/05 05:25:19;;;;;;;14.70;8.05;;;14.70;99.90;;;;;;6206297;23;20015;-79
2023/08/05 05:27:45;;;;;;;14.43;8.13;;;14.70;99.90;;;;;;6205785;23;20377;-79
2023/08/05 05:30:11;;;;;;;24.50;12.45;;;14.70;99.90;;;;;;6205319;23;20012;-79
2023/08/05 05:32:36;;;;;;;19.15;11.18;;;14.80;99.90;;;;;;6232811;23;20088;-80
2023/08/05 05:35:02;;;;;;;20.10;10.95;;;14.80;99.90;;;;;;6205609;23;20031;-79
2023/08/05 05:37:28;;;;;;;19.38;10.30;;;14.90;99.90;;;;;;6205119;23;20007;-79
2023/08/05 05:39:54;;;;;;;17.30;9.73;;;15.00;99.90;;;;;;6204654;23;20069;-79
2023/08/05 05:42:19;;;;;;;17.40;10.43;;;15.10;99.90;;;;;;6205622;23;20004;-79
2023/08/05 05:44:52;;;;;;;19.00;10.82;;;15.20;99.90;;;;;;6205742;23;20015;-80
2023/08/05 05:47:20;;;;;;;16.02;8.55;;;15.40;99.90;;;;;;6205139;23;20004;-79
2023/08/05 05:49:46;;;;;;;16.13;9.13;;;15.40;99.90;;;;;;6205372;23;20456;-79
2023/08/05 05:52:15;;;;;;;19.95;9.10;;;15.40;99.90;;;;;;6205953;23;20008;-79
2023/08/05 05:54:41;;;;;;;16.88;8.45;;;15.40;99.90;;;;;;6205534;23;20008;-79
2023/08/05 05:57:07;;;;;;;17.20;9.52;;;15.40;99.90;;;;;;6205850;23;20091;-79
2023/08/05 05:59:32;;;;;;;16.65;9.18;;;15.50;99.90;;;;;;6205478;23;20039;-79
2023/08/05 06:01:58;;;;;;;20.77;9.27;;;15.50;99.90;;;;;;6209229;23;20090;-79
2023/08/05 06:04:27;;;;;;;19.15;9.27;;;15.60;99.90;;;;;;6207362;23;20024;-79
2023/08/05 06:09:30;;;;;;;19.88;9.93;;;15.70;99.90;;;;;;6233171;22;20410;-79
2023/08/05 06:11:55;;;;;;;20.70;9.60;;;15.60;99.90;;;;;;6228175;23;20331;-80
2023/08/05 06:14:21;;;;;;;20.08;8.90;;;15.70;99.90;;;;;;6229845;23;20004;-81
2023/08/05 06:16:47;;;;;;;17.67;8.68;;;15.80;99.90;;;;;;6228925;23;20448;-79
2023/08/05 06:19:12;;;;;;;14.48;9.07;;;15.80;99.90;;;;;;6230961;23;20024;-79
2023/08/05 06:21:38;;;;;;;18.13;9.38;;;15.80;99.90;;;;;;6230735;23;20008;-78
2023/08/05 06:24:03;;;;;;;20.27;10.02;;;15.70;99.90;;;;;;6231853;23;20000;-79
2023/08/05 06:26:29;;;;;;;16.42;8.93;;;15.60;99.90;;;;;;6230015;23;20000;-78
2023/08/05 06:28:55;;;;;;;23.45;9.88;;;15.50;99.90;;;;;;6227755;23;20071;-79
2023/08/05 06:31:21;;;;;;;15.98;9.25;;;15.40;99.90;;;;;;6229398;23;20404;-81
2023/08/05 06:33:46;;;;;;;20.70;9.63;;;15.30;99.90;;;;;;6228582;23;20038;-79
2023/08/05 06:36:12;;;;;;;16.85;10.18;;;15.30;99.90;;;;;;6228128;23;20087;-80
2023/08/05 06:38:37;;;;;;;17.35;10.20;;;15.10;99.90;;;;;;6227900;23;20008;-80
2023/08/05 06:41:03;;;;;;;18.95;9.80;;;15.00;99.90;;;;;;6229456;23;20095;-83
2023/08/05 06:43:29;;;;;;;20.17;11.32;;;15.00;99.90;;;;;;6229938;23;20443;-83
2023/08/05 06:45:54;;;;;;;19.45;10.23;;;14.90;99.90;;;;;;6202356;23;20418;-80
2023/08/05 06:48:20;;;;;;;19.58;10.65;;;14.90;99.90;;;;;;6229580;23;20008;-79
2023/08/05 06:50:45;;;;;;;16.95;9.82;;;15.00;99.90;;;;;;6227630;23;20004;-80
2023/08/05 06:53:11;;;;;;;17.63;9.63;;;15.10;99.90;;;;;;6228752;23;20332;-83
2023/08/05 06:55:37;;;;;;;21.55;10.05;;;15.20;99.90;;;;;;6228322;23;20047;-82
2023/08/05 06:58:02;;;;;;;26.90;10.65;;;15.40;99.90;;;;;;6231630;23;20040;-81
2023/08/05 07:00:28;;;;;;;23.80;10.45;;;15.50;99.90;;;;;;6229030;23;20848;-81
2023/08/05 07:02:54;;;;;;;19.02;10.32;;;15.40;99.90;;;;;;6228607;23;20008;-82
2023/08/05 07:05:19;;;;;;;19.50;10.48;;;15.50;99.90;;;;;;6228808;23;20092;-81
2023/08/05 07:07:45;;;;;;;18.30;8.98;;;15.40;99.90;;;;;;6229684;23;20023;-82
2023/08/05 07:10:12;;;;;;;16.77;9.88;;;15.60;99.90;;;;;;6204307;23;20035;-81
2023/08/05 07:12:38;;;;;;;18.05;9.23;;;15.90;99.90;;;;;;6231988;23;20004;-80
2023/08/05 07:15:04;;;;;;;20.02;9.60;;;15.80;99.90;;;;;;6230992;23;20022;-77
2023/08/05 07:17:30;;;;;;;19.33;9.38;;;15.80;99.90;;;;;;6223398;23;20044;-76
2023/08/05 07:19:55;;;;;;;19.45;9.73;;;15.50;99.90;;;;;;6225885;23;20061;-77
2023/08/05 07:22:21;;;;;;;14.85;8.73;;;15.50;99.90;;;;;;6224780;23;20019;-77
2023/08/05 07:24:47;;;;;;;18.30;10.27;;;15.40;99.90;;;;;;6224437;23;20000;-76
2023/08/05 07:27:12;;;;;;;20.52;9.27;;;15.20;99.90;;;;;;6222619;23;20367;-76
2023/08/05 07:29:41;;;;;;;13.77;8.40;;;15.10;99.90;;;;;;6223552;23;20088;-76
2023/08/05 07:32:07;;;;;;;13.27;8.65;;;15.00;99.90;;;;;;6226150;23;20094;-76
2023/08/05 07:34:33;;;;;;;17.52;8.93;;;14.90;99.90;;;;;;6221863;23;20308;-75
2023/08/05 07:36:59;;;;;;;12.65;8.18;;;14.90;99.90;;;;;;6222916;23;20024;-75
2023/08/05 07:39:28;;;;;;;14.75;8.68;;;15.00;99.90;;;;;;6223169;23;20075;-77
2023/08/05 07:41:53;;;;;;;14.48;8.38;;;15.40;99.90;;;;;;6223096;23;20313;-77
2023/08/05 07:44:19;;;;;;;18.10;8.70;;;16.00;99.90;;;;;;6223371;23;20015;-77
2023/08/05 07:46:47;;;;;;;14.98;7.78;;;16.50;99.90;;;;;;6223312;23;20004;-80
2023/08/05 07:49:13;;;;;;;11.32;6.47;;;16.90;99.90;;;;;;6224833;23;20007;-79
2023/08/05 07:51:39;;;;;;;14.52;7.13;;;16.90;99.90;;;;;;6224373;23;20004;-80
2023/08/05 07:54:05;;;;;;;13.82;7.15;;;16.40;99.90;;;;;;6226528;23;20082;-80
2023/08/05 07:56:33;;;;;;;12.55;7.13;;;16.20;99.90;;;;;;6228128;23;20012;-79
2023/08/05 07:58:58;;;;;;;12.82;6.88;;;16.10;99.90;;;;;;6227703;23;20015;-78
2023/08/05 08:01:24;;;;;;;9.77;6.30;;;16.10;99.90;;;;;;6228337;23;20004;-79
2023/08/05 08:03:53;;;;;;;13.77;5.55;;;16.20;99.90;;;;;;6226256;23;20001;-78
2023/08/05 08:06:20;;;;;;;8.38;5.10;;;16.00;99.90;;;;;;6227305;23;20004;-79
2023/08/05 08:08:46;;;;;;;13.13;5.85;;;15.80;99.90;;;;;;6227832;23;20024;-78
2023/08/05 08:11:13;;;;;;;15.60;6.00;;;15.60;99.90;;;;;;6227261;23;20082;-78
2023/08/05 08:13:39;;;;;;;14.85;6.60;;;15.50;99.90;;;;;;6227949;23;20016;-80
2023/08/05 08:16:05;;;;;;;12.13;5.55;;;15.20;99.90;;;;;;6228531;23;20507;-79
2023/08/05 08:18:31;;;;;;;8.00;4.72;;;15.10;99.90;;;;;;6228523;23;20091;-78
2023/08/05 08:20:56;;;;;;;10.40;4.55;;;15.10;99.90;;;;;;6226884;23;20554;-79
2023/08/05 08:23:22;;;;;;;10.63;3.90;;;15.20;99.90;;;;;;6224878;23;20008;-78
2023/08/05 08:25:48;;;;;;;9.27;3.22;;;15.30;99.90;;;;;;6227986;23;20109;-80
2023/08/05 08:28:13;;;;;;;8.48;3.45;;;15.20;99.90;;;;;;6225781;23;20095;-78
2023/08/05 08:30:39;;;;;;;7.22;2.97;;;15.20;99.90;;;;;;6226808;23;20591;-78
2023/08/05 08:33:05;;;;;;;5.72;2.35;;;15.30;99.90;;;;;;6228204;23;20011;-79
2023/08/05 08:35:30;;;;;;;8.30;2.63;;;14.90;99.90;;;;;;6228841;23;20183;-78
2023/08/05 08:37:56;;;;;;;4.38;2.40;;;14.40;99.90;;;;;;6230173;23;20076;-79
2023/08/05 08:40:22;;;;;;;6.88;2.42;;;14.20;99.90;;;;;;6231424;23;20014;-78
2023/08/05 08:42:50;;;;;;;3.95;2.22;;;14.10;99.90;;;;;;6233370;23;20038;-79
2023/08/05 08:45:17;;;;;;;7.43;3.13;;;14.10;99.90;;;;;;6232501;23;20004;-79
2023/08/05 08:47:44;;;;;;;7.45;2.95;;;14.30;99.90;;;;;;6231781;23;20424;-77
2023/08/05 08:50:11;;;;;;;8.55;3.35;;;14.30;99.90;;;;;;6230291;23;20024;-77
2023/08/05 08:52:40;;;;;;;13.05;3.10;;;14.30;99.90;;;;;;6230461;23;20000;-77
2023/08/05 08:55:08;;;;;;;11.95;3.47;;;14.50;99.90;;;;;;6230037;23;20016;-75
2023/08/05 08:57:34;;;;;;;8.23;3.42;;;14.50;99.90;;;;;;6230158;23;20004;-76
2023/08/05 09:00:00;;;;;;;10.52;3.90;;;14.60;99.90;;;;;;6229438;23;20012;-77
2023/08/05 09:02:26;;;;;;;10.40;3.97;;;14.50;99.90;;;;;;6231818;23;20008;-77
2023/08/05 09:04:55;;;;;;;8.38;2.88;;;14.50;99.90;;;;;;6232210;23;20012;-77
2023/08/05 09:07:25;;;;;;;5.97;2.95;;;14.50;99.90;;;;;;6231238;23;19996;-77
2023/08/05 09:09:51;;;;;;;5.72;2.70;;;14.50;99.90;;;;;;6230577;23;20012;-76
2023/08/05 09:12:16;;;;;;;10.50;2.83;;;14.60;99.90;;;;;;6230460;23;20020;-76
2023/08/05 09:14:42;;;;;;;10.13;3.25;;;14.60;99.90;;;;;;6231096;23;20343;-76
2023/08/05 09:17:07;;;;;;;7.93;3.13;;;14.60;99.90;;;;;;6227906;23;20012;-77
2023/08/05 09:19:33;;;;;;;9.15;3.15;;;14.70;99.90;;;;;;6232381;23;20032;-78
2023/08/05 09:22:05;;;;;;;6.88;2.95;;;15.20;99.90;;;;;;6232708;23;20087;-81
2023/08/05 09:24:31;;;;;;;9.02;2.85;;;15.20;99.90;;;;;;6231733;23;20391;-78
2023/08/05 09:27:00;;;;;;;10.25;2.90;;;15.30;99.90;;;;;;6231270;23;20000;-80
2023/08/05 09:29:27;;;;;;;8.48;3.42;;;15.20;99.90;;;;;;6232044;23;20004;-80
2023/08/05 09:31:57;;;;;;;8.45;2.88;;;15.00;99.90;;;;;;6229637;23;20046;-79
2023/08/05 09:34:34;;;;;;;12.77;3.53;;;14.90;99.90;;;;;;6228466;23;20027;-79
2023/08/05 09:37:02;;;;;;;8.48;3.45;;;14.90;99.90;;;;;;6227406;23;20008;-81
2023/08/05 09:39:47;;;;;;;12.00;3.22;;;14.80;99.90;;;;;;6229154;23;20390;-79
2023/08/05 09:42:24;;;;;;;10.48;5.10;;;14.70;99.90;;;;;;6228461;23;20019;-80
2023/08/05 09:44:55;;;;;;;8.40;3.60;;;14.60;99.90;;;;;;6200557;23;20008;-77
2023/08/05 09:47:24;;;;;;;9.23;3.47;;;14.40;99.90;;;;;;6225105;23;20007;-75
2023/08/05 09:49:51;;;;;;;11.18;3.50;;;14.40;99.90;;;;;;6224274;23;20004;-76
2023/08/05 09:52:20;;;;;;;8.43;3.05;;;14.50;99.90;;;;;;6226234;23;20028;-75
2023/08/05 09:54:52;;;;;;;9.50;3.20;;;14.40;99.90;;;;;;6229741;23;20072;-75
2023/08/05 09:57:20;;;;;;;11.60;3.35;;;14.50;99.90;;;;;;6231722;23;20031;-74
2023/08/05 09:59:47;;;;;;;8.20;2.63;;;14.50;99.90;;;;;;6230508;23;20008;-75
2023/08/05 10:02:18;;;;;;;7.25;2.60;;;14.40;99.90;;;;;;6230849;23;20004;-75
2023/08/05 10:04:44;;;;;;;;;;;14.60;99.90;;;;;;6232672;23;20054;-76
2023/08/05 10:07:11;;;;;;;10.60;2.20;;;14.70;99.90;;;;;;6231391;22;19903;-76
2023/08/05 10:09:38;;;;;;;3.40;2.00;;;14.90;99.90;;;;;;6231667;23;20392;-75
2023/08/05 10:12:04;;;;;;;4.28;1.60;;;15.00;99.90;;;;;;6203069;23;20023;-74
2023/08/05 10:14:31;;;;;;;6.40;1.95;;;15.00;99.90;;;;;;6232145;23;20000;-75
2023/08/05 10:16:57;;;;;;;6.55;1.85;;;15.10;99.90;;;;;;6233036;23;20327;-74
2023/08/05 10:19:30;;;;;;;5.97;2.00;;;15.20;99.90;;;;;;6231508;23;20015;-74
2023/08/05 10:22:12;;;;;;;7.03;1.88;;;15.20;99.90;;;;;;6231464;23;20046;-74
2023/08/05 10:24:49;;;;;;;7.47;2.08;;;15.30;99.90;;;;;;6232422;23;20394;-75
2023/08/05 10:27:15;;;;;;;4.45;1.50;;;15.20;99.90;;;;;;6226436;23;20047;-76
2023/08/05 10:29:54;;;;;;;4.20;1.50;;;15.10;99.90;;;;;;6226434;23;20242;-74
2023/08/05 10:32:32;;;;;;;12.45;1.75;;;15.00;99.90;;;;;;6223745;23;20091;-74
2023/08/05 10:35:26;;;;;;;6.28;1.60;;;15.00;99.90;;;;;;6227236;23;20369;-74
2023/08/05 10:38:07;;;;;;;6.95;2.05;;;15.00;99.90;;;;;;6224998;23;20012;-74
2023/08/05 10:40:39;;;;;;;5.05;1.67;;;15.20;99.90;;;;;;6229241;23;20000;-74
2023/08/05 10:43:05;;;;;;;7.40;1.45;;;15.10;99.90;;;;;;6228794;23;20082;-75
2023/08/05 10:45:37;;;;;;;7.22;1.70;;;15.10;99.90;;;;;;6232418;23;20004;-74
2023/08/05 10:48:10;;;;;;;7.85;1.80;;;15.00;99.90;;;;;;6231420;23;20004;-75
2023/08/05 10:50:39;;;;;;;6.45;1.52;;;15.20;99.90;;;;;;6230651;23;20042;-74
2023/08/05 10:53:12;;;;;;;9.63;2.03;;;15.10;99.90;;;;;;6230636;23;20008;-75
2023/08/05 10:55:49;;;;;;;12.25;1.65;;;15.10;99.90;;;;;;6230178;23;20020;-76
2023/08/05 10:58:15;;;;;;;6.85;1.55;;;15.00;99.90;;;;;;6230094;23;20027;-76
2023/08/05 11:00:42;;;;;;;8.25;1.58;;;15.00;99.90;;;;;;6230277;23;20018;-77
2023/08/05 11:03:26;;;;;;;11.02;1.90;;;15.10;99.90;;;;;;6232474;23;20019;-77
2023/08/05 11:05:55;;;;;;;12.60;1.92;;;15.20;99.90;;;;;;6230963;23;20000;-79
2023/08/05 11:08:22;;;;;;;12.55;2.22;;;15.40;99.90;;;;;;6230556;23;20016;-76
2023/08/05 11:10:49;;;;;;;11.90;2.20;;;15.40;99.90;;;;;;6232070;23;20000;-76
2023/08/05 11:13:16;;;;;;;13.30;2.08;;;15.40;99.90;;;;;;6229972;23;20076;-77
2023/08/05 11:15:42;;;;;;;12.80;2.33;;;15.50;99.90;;;;;;6231229;23;20027;-79
2023/08/05 11:18:07;;;;;;;11.25;2.53;;;15.50;99.90;;;;;;6230701;23;20012;-78
2023/08/05 11:20:34;;;;;;;10.60;3.20;;;15.60;99.90;;;;;;6230838;23;20011;-78
2023/08/05 11:23:00;;;;;;;16.45;2.80;;;15.70;99.90;;;;;;6232484;23;20012;-77
2023/08/05 11:25:26;;;;;;;8.52;2.15;;;15.90;99.90;;;;;;6231687;23;20004;-79
2023/08/05 11:27:53;;;;;;;17.27;3.40;;;16.10;99.90;;;;;;6230935;23;20000;-78
2023/08/05 11:30:20;;;;;;;13.60;2.90;;;16.20;99.90;;;;;;6231641;23;20008;-78
2023/08/05 11:32:55;;;;;;;17.08;2.58;;;16.20;99.90;;;;;;6231948;23;20068;-80
2023/08/05 11:35:21;;;;;;;10.63;2.58;;;16.10;99.90;;;;;;6232403;23;20134;-78
2023/08/05 11:37:47;;;;;;;12.15;2.88;;;16.40;99.90;;;;;;6231773;23;20405;-79
2023/08/05 11:40:12;;;;;;;7.00;1.30;;;16.50;99.90;;;;;;6231825;23;20092;-78
2023/08/05 11:42:41;;;;;;;7.03;1.58;;;16.70;99.90;;;;;;6231689;23;20331;-79
2023/08/05 11:45:12;;;;;;;7.50;1.30;;;16.80;99.90;;;;;;6231687;23;20074;-80
2023/08/05 11:47:38;;;;;;;5.07;1.27;;;17.20;99.90;;;;;;6230143;23;20444;-77
2023/08/05 11:50:04;;;;;;;5.18;1.10;;;17.20;99.90;;;;;;6230700;23;20016;-79
2023/08/05 11:52:30;;;;;;;9.57;1.30;;;17.00;99.90;;;;;;6227750;23;20075;-78
2023/08/05 11:54:59;;;;;;;6.65;1.33;;;17.80;99.90;;;;;;6229858;23;20439;-80
2023/08/05 11:57:26;;;;;;;4.15;1.30;;;18.10;99.90;;;;;;6229712;23;20073;-77
2023/08/05 11:59:55;;;;;;;6.05;1.58;;;18.00;99.90;;;;;;6229860;23;20008;-79
2023/08/05 12:02:22;;;;;;;8.60;1.67;;;18.00;99.90;;;;;;6229258;23;20000;-81
2023/08/05 12:04:49;;;;;;;12.20;2.53;;;18.20;99.90;;;;;;6230256;23;20031;-79
2023/08/05 12:07:17;;;;;;;12.27;2.45;;;18.20;99.90;;;;;;6229101;23;20011;-78
2023/08/05 12:09:43;;;;;;;8.75;1.65;;;19.20;99.90;;;;;;6227578;23;20012;-79
2023/08/05 12:12:16;;;;;;;11.70;1.70;;;19.80;99.90;;;;;;6228414;23;20078;-78
2023/08/05 12:14:42;;;;;;;9.60;1.40;;;19.90;99.90;;;;;;6225855;23;20014;-78
2023/08/05 12:17:08;;;;;;;10.20;1.40;;;19.60;99.90;;;;;;6225675;23;20079;-78
2023/08/05 12:19:34;;;;;;;7.88;1.70;;;19.60;99.90;;;;;;6227706;23;20030;-77
2023/08/05 12:21:59;;;;;;;8.27;1.45;;;19.10;99.90;;;;;;6225582;23;20077;-76
2023/08/05 12:24:25;;;;;;;12.77;1.98;;;18.80;99.90;;;;;;6227054;23;20065;-77
2023/08/05 12:26:50;;;;;;;12.70;2.05;;;18.30;99.90;;;;;;6226909;23;20132;-77
2023/08/05 12:29:16;;;;;;;15.63;2.20;;;18.60;99.90;;;;;;6227328;23;20004;-79
2023/08/05 12:31:41;;;;;;;12.02;1.83;;;19.90;99.90;;;;;;6228072;23;20432;-80
2023/08/05 12:34:07;;;;;;;16.33;2.40;;;20.40;99.90;;;;;;6226138;23;20023;-77
2023/08/05 12:36:33;;;;;;;8.38;1.90;;;21.10;99.90;;;;;;6198782;23;20466;-79
2023/08/05 12:38:58;;;;;;;16.00;2.88;;;21.10;99.90;;;;;;6225948;23;20000;-79
2023/08/05 12:41:24;;;;;;;12.93;2.58;;;21.10;99.90;;;;;;6224693;23;20947;-79